createdAt,value
2023-05-14T00:02:34.378Z,13.90
2023-05-14T00:06:42.437Z,14.25
2023-05-14T00:11:01.730Z,14.48
2023-05-14T00:15:15.909Z,15.43
2023-05-14T00:19:22.671Z,15.63
2023-05-14T00:23:33.809Z,16.27
2023-05-14T00:27:43.779Z,14.80
2023-05-14T00:31:54.676Z,15.88
2023-05-14T00:36:03.083Z,16.70
2023-05-14T00:40:11.173Z,16.25
2023-05-14T00:44:31.373Z,14.80
2023-05-14T00:48:41.545Z,15.35
2023-05-14T00:52:51.314Z,16.08
2023-05-14T00:56:59.098Z,13.70
2023-05-14T01:01:03.331Z,16.35
2023-05-14T01:05:13.824Z,15.50
2023-05-14T01:10:03.700Z,13.23
2023-05-14T01:14:25.227Z,14.02
2023-05-14T01:18:43.783Z,15.45
2023-05-14T01:22:52.147Z,14.90
2023-05-14T01:27:10.967Z,14.20
2023-05-14T01:31:29.584Z,14.27
2023-05-14T01:35:53.337Z,16.92
2023-05-14T01:40:03.196Z,15.07
2023-05-14T01:44:10.672Z,16.70
2023-05-14T01:48:23.495Z,16.45
2023-05-14T01:52:29.204Z,17.25
2023-05-14T01:56:36.188Z,15.60
2023-05-14T02:00:47.900Z,14.88
2023-05-14T02:05:00.195Z,14.35
2023-05-14T02:09:20.025Z,14.60
2023-05-14T02:13:28.120Z,14.82
2023-05-14T02:17:31.971Z,14.05
2023-05-14T02:21:37.658Z,14.43
2023-05-14T02:25:49.789Z,15.35
2023-05-14T02:30:06.133Z,13.98
2023-05-14T02:34:22.718Z,14.27
2023-05-14T02:38:34.079Z,15.80
2023-05-14T02:42:45.685Z,16.25
2023-05-14T02:46:57.403Z,14.40
2023-05-14T02:51:03.410Z,14.95
2023-05-14T02:55:10.187Z,15.85
2023-05-14T02:59:20.672Z,16.05
2023-05-14T03:03:29.235Z,14.93
2023-05-14T03:07:33.826Z,13.63
2023-05-14T03:11:43.844Z,15.00
2023-05-14T03:16:03.127Z,13.80
2023-05-14T03:20:13.777Z,15.95
2023-05-14T03:24:29.413Z,13.73
2023-05-14T03:28:43.866Z,13.43
2023-05-14T03:33:02.498Z,15.65
2023-05-14T03:37:15.565Z,14.20
2023-05-14T03:41:32.519Z,14.27
2023-05-14T03:45:39.912Z,14.20
2023-05-14T03:49:45.115Z,14.90
2023-05-14T03:53:52.957Z,14.88
2023-05-14T03:58:10.405Z,14.52
2023-05-14T04:02:16.001Z,13.82
2023-05-14T04:06:24.711Z,17.08
2023-05-14T04:10:38.660Z,15.73
2023-05-14T04:14:49.013Z,15.63
2023-05-14T04:19:04.582Z,15.85
2023-05-14T04:23:09.460Z,16.50
2023-05-14T04:27:24.833Z,15.95
2023-05-14T04:31:34.210Z,15.82
2023-05-14T04:35:53.285Z,16.00
2023-05-14T04:40:04.828Z,16.83
2023-05-14T04:44:15.656Z,14.85
2023-05-14T04:48:26.396Z,15.85
2023-05-14T04:52:34.727Z,14.95
2023-05-14T04:56:47.573Z,15.15
2023-05-14T05:00:53.124Z,15.07
2023-05-14T05:04:55.317Z,15.35
2023-05-14T05:08:58.014Z,14.00
2023-05-14T05:13:12.455Z,14.68
2023-05-14T05:17:29.608Z,13.35
2023-05-14T05:21:52.342Z,12.75
2023-05-14T05:31:05.825Z,13.48
2023-05-14T05:35:15.724Z,13.13
2023-05-14T05:39:29.740Z,14.13
2023-05-14T05:43:56.995Z,13.60
2023-05-14T05:48:37.863Z,14.05
2023-05-14T05:52:59.414Z,14.10
2023-05-14T05:57:48.343Z,15.25
2023-05-14T06:06:52.206Z,14.27
2023-05-14T06:11:58.172Z,16.20
2023-05-14T06:16:54.060Z,15.80
2023-05-14T06:21:14.931Z,16.33
2023-05-14T06:25:28.988Z,18.33
2023-05-14T06:29:39.407Z,18.58
2023-05-14T06:33:46.440Z,19.30
2023-05-14T06:38:01.132Z,18.52
2023-05-14T06:47:58.961Z,21.83
2023-05-14T06:52:07.971Z,23.60
2023-05-14T06:56:24.024Z,24.92
2023-05-14T07:00:28.978Z,26.67
2023-05-14T07:04:35.273Z,24.87
2023-05-14T07:08:40.447Z,25.02
2023-05-14T07:12:44.672Z,20.80
2023-05-14T07:16:48.667Z,19.02
2023-05-14T07:24:54.188Z,17.80
2023-05-14T07:33:30.621Z,14.77
2023-05-14T07:37:55.198Z,16.65
2023-05-14T07:42:36.652Z,17.23
2023-05-14T07:47:02.138Z,20.13
2023-05-14T07:51:29.037Z,18.65
2023-05-14T07:55:57.990Z,19.52
2023-05-14T08:00:25.954Z,19.10
2023-05-14T08:05:25.678Z,19.13
2023-05-14T08:09:34.081Z,22.65
2023-05-14T08:13:42.465Z,20.88
2023-05-14T08:17:53.932Z,21.83
2023-05-14T08:22:08.037Z,22.67
2023-05-14T08:26:25.910Z,22.95
2023-05-14T08:30:37.336Z,23.75
2023-05-14T08:34:46.832Z,22.40
2023-05-14T08:38:56.505Z,18.63
2023-05-14T08:43:07.846Z,20.92
2023-05-14T08:47:18.288Z,23.30
2023-05-14T09:00:39.894Z,23.88
2023-05-14T09:04:53.953Z,24.17
2023-05-14T09:09:02.963Z,22.35
2023-05-14T09:13:12.357Z,21.33
2023-05-14T09:17:39.838Z,22.70
2023-05-14T10:00:16.231Z,15.65
2023-05-14T10:04:19.328Z,14.00
2023-05-14T10:08:49.092Z,15.23
2023-05-14T10:17:21.454Z,16.10
2023-05-14T10:21:25.312Z,16.00
2023-05-14T10:25:28.138Z,15.43
2023-05-14T10:29:38.324Z,14.35
2023-05-14T10:33:49.960Z,15.48
2023-05-14T10:37:52.020Z,15.43
2023-05-14T10:41:54.134Z,14.32
2023-05-14T10:45:57.786Z,14.73
2023-05-14T10:50:03.714Z,11.95
2023-05-14T10:54:08.612Z,12.48
2023-05-14T10:58:11.709Z,12.05
2023-05-14T11:02:23.045Z,12.00
2023-05-14T11:06:26.458Z,10.93
2023-05-14T11:10:30.186Z,11.87
2023-05-14T11:14:32.248Z,11.13
2023-05-14T11:18:38.700Z,12.82
2023-05-14T11:22:42.294Z,13.10
2023-05-14T11:26:45.398Z,14.07
2023-05-14T11:30:47.785Z,13.85
2023-05-14T11:34:49.972Z,12.65
2023-05-14T11:38:52.547Z,12.23
2023-05-14T11:43:22.901Z,11.88
2023-05-14T11:47:42.936Z,10.85
2023-05-14T11:52:02.409Z,11.80
2023-05-14T11:56:06.616Z,13.40
2023-05-14T12:00:16.970Z,12.40
2023-05-14T12:04:22.626Z,13.98
2023-05-14T12:08:30.162Z,13.38
2023-05-14T12:12:37.174Z,17.42
2023-05-14T12:16:41.644Z,17.23
2023-05-14T12:24:57.866Z,16.55
2023-05-14T12:29:01.977Z,22.77
2023-05-14T12:33:04.439Z,24.48
2023-05-14T12:37:07.234Z,27.00
2023-05-14T12:41:09.317Z,36.17
2023-05-14T12:45:11.935Z,43.55
2023-05-14T12:49:14.131Z,45.90
2023-05-14T12:53:16.501Z,26.98
2023-05-14T12:57:18.552Z,25.42
2023-05-14T13:01:20.780Z,18.90
2023-05-14T13:05:24.698Z,20.42
2023-05-14T13:09:28.048Z,24.83
2023-05-14T13:13:30.259Z,27.02
2023-05-14T13:17:32.374Z,24.48
2023-05-14T13:21:34.521Z,24.92
2023-05-14T13:25:36.761Z,22.23
2023-05-14T13:29:38.956Z,18.33
2023-05-14T13:33:43.202Z,16.02
2023-05-14T13:37:45.583Z,16.27
2023-05-14T13:41:47.611Z,15.65
2023-05-14T13:45:51.215Z,13.13
2023-05-14T13:49:54.065Z,27.83
2023-05-14T13:53:56.473Z,17.45
2023-05-14T13:57:59.517Z,14.95
2023-05-14T14:02:01.912Z,19.13
2023-05-14T14:06:04.094Z,25.48
2023-05-14T14:10:06.842Z,31.23
2023-05-14T14:14:08.959Z,29.20
2023-05-14T14:18:10.985Z,32.42
2023-05-14T14:22:14.086Z,25.25
2023-05-14T14:26:16.228Z,21.17
2023-05-14T14:30:19.226Z,20.23
2023-05-14T14:34:24.693Z,17.97
2023-05-14T14:38:27.032Z,19.23
2023-05-14T14:42:29.067Z,20.20
2023-05-14T14:46:32.398Z,18.23
2023-05-14T14:50:34.498Z,11.40
2023-05-14T14:54:36.680Z,19.00
2023-05-14T14:58:38.866Z,13.93
2023-05-14T15:02:43.162Z,21.92
2023-05-14T15:06:45.365Z,22.98
2023-05-14T15:10:47.471Z,24.92
2023-05-14T15:14:49.578Z,23.13
2023-05-14T15:18:51.713Z,20.73
2023-05-14T15:22:54.183Z,10.75
2023-05-14T15:26:58.209Z,12.45
2023-05-14T15:31:00.410Z,43.83
2023-05-14T15:35:02.640Z,49.63
2023-05-14T15:39:04.845Z,29.92
2023-05-14T15:43:06.959Z,36.47
2023-05-14T15:47:08.979Z,29.35
2023-05-14T15:51:11.072Z,31.92
2023-05-14T15:55:13.180Z,35.65
2023-05-14T15:59:18.260Z,35.85
2023-05-14T16:03:20.505Z,39.40
2023-05-14T16:07:22.817Z,50.50
2023-05-14T16:11:24.938Z,48.65
2023-05-14T16:15:27.239Z,46.10
2023-05-14T16:19:29.412Z,28.83
2023-05-14T16:23:31.412Z,22.92
2023-05-14T16:27:34.413Z,25.02
2023-05-14T16:31:36.501Z,21.02
2023-05-14T16:35:39.417Z,18.70
2023-05-14T16:39:41.582Z,27.73
2023-05-14T16:43:43.855Z,35.03
2023-05-14T16:47:45.994Z,30.90
2023-05-14T16:51:48.370Z,24.48
2023-05-14T16:55:50.583Z,27.15
2023-05-14T16:59:53.524Z,32.75
2023-05-14T17:03:56.466Z,28.20
2023-05-14T17:07:58.522Z,30.17
2023-05-14T17:12:00.764Z,25.45
2023-05-14T17:16:03.367Z,13.65
2023-05-14T17:20:06.061Z,5.50
2023-05-14T17:24:08.276Z,6.07
2023-05-14T17:28:10.345Z,9.15
2023-05-14T17:32:12.818Z,15.65
2023-05-14T17:36:15.112Z,16.95
2023-05-14T17:40:17.393Z,18.30
2023-05-14T17:44:19.589Z,18.73
2023-05-14T17:48:22.963Z,18.05
2023-05-14T17:52:24.958Z,20.50
2023-05-14T17:56:27.067Z,21.35
2023-05-14T18:00:29.282Z,21.40
2023-05-14T18:04:31.626Z,20.20
2023-05-14T18:08:33.807Z,19.25
2023-05-14T18:12:35.986Z,16.52
2023-05-14T18:16:38.554Z,13.30
2023-05-14T18:20:40.698Z,14.80
2023-05-14T18:24:44.347Z,11.63
2023-05-14T18:28:46.420Z,12.70
2023-05-14T18:32:48.520Z,13.85
2023-05-14T18:36:51.033Z,12.77
2023-05-14T18:40:53.313Z,9.18
2023-05-14T18:44:55.572Z,8.63
2023-05-14T18:48:57.889Z,6.32
2023-05-14T18:52:59.951Z,6.00
2023-05-14T18:57:02.362Z,5.22
2023-05-14T19:01:05.819Z,5.07
2023-05-14T19:05:08.297Z,6.20
2023-05-14T19:09:11.834Z,6.85
2023-05-14T19:13:15.945Z,7.97
2023-05-14T19:21:34.157Z,8.40
2023-05-14T19:21:41.326Z,7.63
2023-05-14T19:25:44.186Z,8.77
2023-05-14T19:29:47.104Z,9.52
2023-05-14T19:33:49.609Z,12.98
2023-05-14T19:37:55.082Z,11.82
2023-05-14T19:41:59.783Z,11.63
2023-05-14T19:46:03.856Z,11.10
2023-05-14T19:50:08.721Z,15.43
2023-05-14T19:54:11.066Z,13.68
2023-05-14T19:58:13.464Z,13.95
2023-05-14T20:02:19.295Z,13.77
2023-05-14T20:06:21.383Z,13.68
2023-05-14T20:10:24.294Z,15.50
2023-05-14T20:14:26.989Z,15.32
2023-05-14T20:18:29.750Z,15.15
2023-05-14T20:22:33.421Z,15.88
2023-05-14T20:26:36.454Z,16.33
2023-05-14T20:30:39.148Z,13.93
2023-05-14T20:34:41.443Z,14.15
2023-05-14T20:38:44.298Z,16.10
2023-05-14T20:42:46.803Z,14.57
2023-05-14T20:46:49.035Z,14.23
2023-05-14T20:50:51.162Z,16.13
2023-05-14T20:54:53.620Z,14.65
2023-05-14T20:58:56.092Z,13.90
2023-05-14T21:03:00.337Z,16.30
2023-05-14T21:07:02.983Z,14.82
2023-05-14T21:11:05.121Z,15.40
2023-05-14T21:15:07.800Z,14.10
2023-05-14T21:19:10.100Z,14.80
2023-05-14T21:23:13.120Z,14.80
2023-05-14T21:27:15.302Z,12.85
2023-05-14T21:31:17.401Z,15.13
2023-05-14T21:35:19.557Z,13.50
2023-05-14T21:39:21.624Z,14.82
2023-05-14T21:43:23.956Z,14.25
2023-05-14T21:47:26.970Z,15.80
2023-05-14T21:51:29.068Z,13.30
2023-05-14T21:55:31.281Z,14.15
2023-05-14T21:59:34.044Z,15.40
2023-05-14T22:03:36.192Z,11.68
2023-05-14T22:07:38.428Z,12.85
2023-05-14T22:11:40.467Z,12.15
2023-05-14T22:15:42.438Z,11.43
2023-05-14T22:19:44.508Z,11.40
2023-05-14T22:23:46.659Z,13.10
2023-05-14T22:27:49.054Z,12.93
2023-05-14T22:31:51.177Z,12.95
2023-05-14T22:35:53.493Z,12.20
2023-05-14T22:39:55.594Z,12.57
2023-05-14T22:43:57.886Z,14.45
2023-05-14T22:48:00.238Z,13.23
2023-05-14T22:52:02.538Z,13.13
2023-05-14T22:56:05.145Z,14.05
2023-05-14T23:00:10.257Z,13.13
2023-05-14T23:04:12.467Z,13.02
2023-05-14T23:08:14.612Z,13.20
2023-05-14T23:12:16.837Z,14.20
2023-05-14T23:16:19.232Z,14.27
2023-05-14T23:20:21.781Z,13.23
2023-05-14T23:24:23.988Z,13.73
2023-05-14T23:28:26.496Z,12.63
2023-05-14T23:32:28.563Z,14.98
2023-05-14T23:36:31.545Z,17.17
2023-05-14T23:40:34.193Z,15.80
2023-05-14T23:44:36.466Z,16.25
2023-05-14T23:48:38.570Z,15.82
2023-05-14T23:52:40.641Z,13.63
2023-05-14T23:56:42.835Z,15.45
